Rapports des METAR proches

 

LFAQ - Bray, France
Distance from station: SSO 19km
Mise à jour: 22/08/2018 05:30
Couvert
Couvert
 Vent NNO
Vent: NNO 7 km/h
Température: 16°C
Point de rosée: 16°C
Humidité: 100%
Baromètre: 1018 hPa
Clouds: Couvert
Visibility: 10 km
Cloud details: Couvert 1341 m
2018/08/22 03:30 LFAQ 220330Z AUTO 34004KT 9999 OVC044 16/16 Q1018
LFQQ - Lille/Lesquin, France
Distance from station: NNE 53km
Mise à jour: 22/08/2018 05:30
Partiellement nuageux
Partiellement nuageux
 Vent OSO
Vent: OSO 6 km/h
Température: 16°C
Point de rosée: 15°C
Humidité: 94%
Baromètre: 1018 hPa
Clouds: Partiellement nuageux
Visibility: 8 km
Cloud details: Partiellement nuageux 91 m
Partiellement nuageux 3048 m
2018/08/22 03:30 LFQQ 220330Z AUTO 24003KT 210V280 8000 SCT003 SCT100 16/15 Q1018 NOSIG
EBCV - Chievres Ab, Belgium
Distance from station: NE 88km
Mise à jour: 22/08/2018 05:33
Brouillard, Clair
Brouillard, Clair
 Vent varies
Vent: varies 4 km/h
Température: 15°C
Point de rosée: 15°C
Humidité: 100%
Baromètre: 1018 hPa
Résumé: Brouillard
Clouds: Clair
Visibility: 0 km
2018/08/22 03:33 EBCV 220333Z AUTO VRB02KT 0400 FG NCD 15/15 Q1018 RED
 
LFOB - Beauvais/Tille(A, France
Distance from station: SSO 88km
Mise à jour: 22/08/2018 05:30
Très nuageux
Très nuageux
 Vent varies
Vent: varies 4 km/h
Température: 17°C
Point de rosée: 16°C
Humidité: 94%
Baromètre: 1018 hPa
Clouds: Très nuageux
Visibility: 10 km
Cloud details: Très nuageux 1341 m
2018/08/22 03:30 LFOB 220330Z AUTO VRB02KT 9999 BKN044 17/16 Q1018 TEMPO 4000 BR
LFAT - Le Touquet/P. Pl, France
Distance from station: ONO 93km
Mise à jour: 22/08/2018 05:30
Couvert
Couvert
 Vent O
Vent: O 11 km/h
Température: 18°C
Point de rosée: 16°C
Humidité: 88%
Baromètre: 1018 hPa
Clouds: Couvert
Visibility: 10 km
Cloud details: Couvert 213 m
2018/08/22 03:30 LFAT 220330Z AUTO 26006KT 230V310 9999 OVC007 18/16 Q1018
LFPC - Creil (fafb), France
Distance from station: S 100km
Mise à jour: 01/09/2016 17:00
NOT Current
Clair
Clair
 Vent ONO
Vent: ONO 7 km/h
Température: 24°C
Point de rosée: 13°C
Humidité: 50%
Baromètre: 1023 hPa
Résumé: Clair
Visibility: greater than 10 km
2016/09/01 15:00 LFPC 011500Z AUTO 30004KT 240V350 CAVOK 24/13 Q1023
 
EBFN - Koksijde (bel-Af, Belgium
Distance from station: N 105km
Mise à jour: 22/08/2018 05:33
Très nuageux
Très nuageux
 Vent OSO
Vent: OSO 17 km/h
Température: 17°C
Point de rosée: 15°C
Humidité: 88%
Baromètre: 1018 hPa
Clouds: Très nuageux
Visibility: 8 km
Cloud details: Très nuageux 244 m
2018/08/22 03:33 EBFN 220333Z 24009KT 8000 BKN008 17/15 Q1018 GRN GRN
EBOS - Oostende Airport, Belgium
Distance from station: N 119km
Mise à jour: 22/08/2018 05:20
Partiellement nuageux
Partiellement nuageux
 Vent SSO
Vent: SSO 7 km/h
Température: 15°C
Point de rosée: 13°C
Humidité: 88%
Baromètre: 1018 hPa
Clouds: Partiellement nuageux
Visibility: 6 km
Cloud details: Partiellement nuageux 274 m
2018/08/22 03:20 EBOS 220320Z 20004KT 6000 SCT009 15/13 Q1018 BECMG 3500 BR BKN008
EBCI - Charleroi/Gossel, Belgium
Distance from station: ENE 124km
Mise à jour: 22/08/2018 05:20
Clair
Clair
 Vent varies
Vent: varies 4 km/h
Température: 18°C
Point de rosée: 17°C
Humidité: 94%
Baromètre: 1019 hPa
Résumé: Clair
Visibility: greater than 10 km
2018/08/22 03:20 EBCI 220320Z VRB02KT CAVOK 18/17 Q1019 NOSIG
 
LFPG - Charles De Gaull, France
Distance from station: S 125km
Mise à jour: 22/08/2018 05:30
Clair
Clair
 Vent NNE
Vent: NNE 11 km/h
Température: 17°C
Point de rosée: 16°C
Humidité: 94%
Baromètre: 1018 hPa
Résumé: Clair
Visibility: greater than 10 km
2018/08/22 03:30 LFPG 220330Z 02006KT 360V130 CAVOK 17/16 Q1018 NOSIG
LFPT - Cormeilles Vexin, France
Distance from station: SSO 127km
Mise à jour: 22/08/2018 05:30
Très nuageux
Très nuageux
 Vent varies
Vent: varies 2 km/h
Température: 16°C
Point de rosée: 15°C
Humidité: 94%
Baromètre: 1018 hPa
Clouds: Très nuageux
Visibility: 10 km
Cloud details: Très nuageux 1280 m
2018/08/22 03:30 LFPT 220330Z AUTO VRB01KT 9999 BKN042 16/15 Q1018
LFPB - Paris/Le Bourget, France
Distance from station: S 132km
Mise à jour: 22/08/2018 05:30
Clair
Clair
 Vent varies
Vent: varies 4 km/h
Température: 17°C
Point de rosée: 15°C
Humidité: 88%
Baromètre: 1018 hPa
Résumé: Clair
Visibility: greater than 10 km
2018/08/22 03:30 LFPB 220330Z AUTO VRB02KT CAVOK 17/15 Q1018 NOSIG
 
EBFS - Florennes (bel-A, Belgium
Distance from station: E 133km
Mise à jour: 22/08/2018 05:33
Très nuageux
Très nuageux
 Vent varies
Vent: varies 0 km/h
Température: 16°C
Point de rosée: 15°C
Humidité: 94%
Baromètre: 1019 hPa
Clouds: Très nuageux
Visibility: 6 km
Cloud details: Partiellement nuageux 1250 m
Très nuageux 6401 m
2018/08/22 03:33 EBFS 220333Z AUTO //////KT 6000 SCT041/// BKN210/// 16/15 Q1019 WHT
LFQA - Reims/Prunay, France
Distance from station: SE 143km
Mise à jour: 22/08/2018 05:30
Clair
Clair
 Vent varies
Vent: varies 4 km/h
Température: 14°C
Point de rosée: 13°C
Humidité: 94%
Baromètre: 1018 hPa
Résumé: Clair
Visibility: greater than 10 km
2018/08/22 03:30 LFQA 220330Z AUTO VRB02KT CAVOK 14/13 Q1018
LFOP - Rouen/Boos (aut), France
Distance from station: SO 144km
Mise à jour: 22/08/2018 05:30

 Vent N
Vent: N 7 km/h
Température: 15°C
Point de rosée: 14°C
Humidité: 94%
Baromètre: 1019 hPa
Visibility: 10 km
2018/08/22 03:30 LFOP 220330Z AUTO 36004KT 9999 VV/// 15/14 Q1019
 
EBBR - Brussels Nationa, Belgium
Distance from station: NE 148km
Mise à jour: 22/08/2018 05:20
Shallow fog, Brume, Partiellement nuageux
Shallow fog, Brume, Partiellement nuageux
 Vent ONO
Vent: ONO 6 km/h
Température: 18°C
Point de rosée: 17°C
Humidité: 94%
Baromètre: 1018 hPa
Résumé: Shallow fog, Brume
Clouds: Partiellement nuageux
Visibility: 3 km
2018/08/22 03:20 EBBR 220320Z 30003KT 3000 MIFG BR NSC 18/17 Q1018 NOSIG
EBBE - Beauvechain (baf, Belgium
Distance from station: ENE 156km
Mise à jour: 22/08/2018 05:25
Très nuageux
Très nuageux
 Vent varies
Vent: varies 2 km/h
Température: 17°C
Point de rosée: 17°C
Humidité: 100%
Baromètre: 1018 hPa
Clouds: Très nuageux
Visibility: 3 km
Cloud details: Très nuageux 1524 m
2018/08/22 03:25 EBBE 220325Z VRB01KT 2500 BKN050 17/17 Q1018 YLO YLO BECMG GRN
EHFS - Vlissingen, Netherlands
Distance from station: NNE 157km
Mise à jour: 22/08/2018 05:25
Quelques nuages
Quelques nuages
 Vent O
Vent: O 17 km/h
Température: 19°C
Point de rosée: 17°C
Humidité: 88%
Baromètre: 1018 hPa
Clouds: Quelques nuages
Visibility: 10 km
Cloud details: Quelques nuages 1341 m
2018/08/22 03:25 EHFS 220325Z AUTO 26009KT 9999 FEW044/// 19/17 Q1018 W///H///
 
LFPV - Villacoublay/Vel, France
Distance from station: SSO 157km
Mise à jour: 22/08/2018 05:30
Clair
Clair
 Vent N
Vent: N 4 km/h
Température: 18°C
Point de rosée: 16°C
Humidité: 88%
Baromètre: 1018 hPa
Résumé: Clair
Visibility: greater than 10 km
2018/08/22 03:30 LFPV 220330Z AUTO 36002KT CAVOK 18/16 Q1018 NOSIG
EGMD - Lydd Airport, United Kingdom
Distance from station: NO 160km
Mise à jour: 22/08/2018 05:20
Couvert
Couvert
 Vent O
Vent: O 7 km/h
Température: 17°C
Point de rosée: 16°C
Humidité: 94%
Baromètre: 1018 hPa
Clouds: Couvert
Visibility: 10 km
Cloud details: Couvert 244 m
2018/08/22 03:20 EGMD 220320Z AUTO 27004KT 9999 OVC008/// 17/16 Q1018